Time;durP1;ratioP1;P1;durP2;ratioP2;P2;SDS_P1;SDS_P2;PMS_P1;PMS_P2;Temp;Humidity;BMP_temperature;BMP_pressure;BME280_temperature;BME280_humidity;BME280_pressure;Samples;Min_cycle;Max_cycle;Signal;HPM_P1;HPM_P2
2022/08/23 00:01:19;;;;;;;8.82;3.88;;;;;;;;;;6251871;22;20027;-86
2022/08/23 00:03:55;;;;;;;9.80;4.13;;;;;;;;;;6251430;22;20354;-87
2022/08/23 00:06:22;;;;;;;9.25;3.88;;;;;;;;;;6279397;22;20448;-86
2022/08/23 00:08:57;;;;;;;14.63;4.75;;;;;;;;;;6280074;22;20020;-89
2022/08/23 00:11:35;;;;;;;12.23;4.45;;;;;;;;;;6226568;22;20539;-87
2022/08/23 00:14:04;;;;;;;15.07;4.68;;;;;;;;;;6251811;22;20026;-88
2022/08/23 00:16:30;;;;;;;12.90;4.38;;;;;;;;;;6249815;22;20078;-86
2022/08/23 00:18:56;;;;;;;14.50;4.45;;;;;;;;;;6251983;22;20114;-84
2022/08/23 00:21:23;;;;;;;11.68;4.95;;;;;;;;;;6250931;22;20016;-86
2022/08/23 00:23:49;;;;;;;11.30;5.03;;;;;;;;;;6251384;22;20341;-86
2022/08/23 00:26:16;;;;;;;11.57;4.20;;;;;;;;;;6249290;22;20024;-88
2022/08/23 00:28:55;;;;;;;10.15;4.15;;;;;;;;;;6226929;22;20016;-86
2022/08/23 00:31:21;;;;;;;13.02;4.70;;;;;;;;;;6278808;22;20015;-86
2022/08/23 00:33:59;;;;;;;10.65;3.97;;;;;;;;;;6251523;22;20020;-88
2022/08/23 00:36:26;;;;;;;9.65;4.43;;;;;;;;;;6280727;22;20355;-88
2022/08/23 00:39:04;;;;;;;12.45;4.47;;;;;;;;;;6253061;22;20019;-86
2022/08/23 00:50:30;;;;;;;7.05;4.97;;;;;;;;;;6254249;22;20090;-87
2022/08/23 00:53:12;;;;;;;13.00;5.05;;;;;;;;;;6280829;22;20047;-84
2022/08/23 00:55:39;;;;;;;15.98;4.95;;;;;;;;;;6281620;22;20348;-87
2022/08/23 00:58:05;;;;;;;10.25;4.93;;;;;;;;;;6281218;22;20019;-87
2022/08/23 01:00:41;;;;;;;7.05;4.05;;;;;;;;;;6255103;22;20328;-87
2022/08/23 01:03:08;;;;;;;7.60;3.95;;;;;;;;;;6254208;22;20050;-84
2022/08/23 01:06:03;;;;;;;8.27;4.10;;;;;;;;;;6253289;22;20103;-88
2022/08/23 01:08:30;;;;;;;11.93;4.75;;;;;;;;;;6252649;22;20015;-88
2022/08/23 01:11:11;;;;;;;9.68;3.70;;;;;;;;;;6251808;22;20034;-86
2022/08/23 01:13:49;;;;;;;5.30;3.50;;;;;;;;;;6228711;22;20020;-87
2022/08/23 01:16:18;;;;;;;5.72;3.42;;;;;;;;;;6226907;22;20455;-87
2022/08/23 01:18:51;;;;;;;9.55;3.50;;;;;;;;;;6230479;22;20480;-89
2022/08/23 01:21:20;;;;;;;7.35;3.83;;;;;;;;;;6203976;22;20031;-88
2022/08/23 01:23:57;;;;;;;7.03;4.03;;;;;;;;;;6282167;22;20019;-89
2022/08/23 01:26:25;;;;;;;7.82;4.30;;;;;;;;;;6255068;22;20035;-88
2022/08/23 01:29:01;;;;;;;10.15;5.18;;;;;;;;;;6253246;22;20043;-87
2022/08/23 01:31:28;;;;;;;9.52;4.40;;;;;;;;;;6227594;22;20122;-87
2022/08/23 01:34:13;;;;;;;11.02;4.63;;;;;;;;;;6279791;22;20043;-87
2022/08/23 01:36:49;;;;;;;11.27;5.72;;;;;;;;;;6228316;22;20023;-88
2022/08/23 01:39:15;;;;;;;10.45;5.10;;;;;;;;;;6253497;22;20071;-87
2022/08/23 01:41:42;;;;;;;8.45;5.10;;;;;;;;;;6254981;22;20030;-89
2022/08/23 01:44:09;;;;;;;12.73;5.57;;;;;;;;;;6226725;22;20055;-85
2022/08/23 01:46:35;;;;;;;9.30;5.72;;;;;;;;;;6254865;22;20042;-88
2022/08/23 01:49:02;;;;;;;11.40;5.65;;;;;;;;;;6280034;22;20072;-87
2022/08/23 01:51:32;;;;;;;11.23;5.70;;;;;;;;;;6254166;22;20026;-86
2022/08/23 01:54:01;;;;;;;10.93;5.93;;;;;;;;;;6201945;22;20364;-87
2022/08/23 01:56:29;;;;;;;7.95;5.40;;;;;;;;;;6254222;22;20045;-87
2022/08/23 01:59:03;;;;;;;16.33;6.63;;;;;;;;;;6281036;22;20050;-87
2022/08/23 02:01:29;;;;;;;12.80;6.95;;;;;;;;;;6281911;22;20044;-86
2022/08/23 02:03:55;;;;;;;13.77;8.30;;;;;;;;;;6255045;22;20042;-87
2022/08/23 02:06:30;;;;;;;17.13;7.60;;;;;;;;;;6255083;22;20024;-87
2022/08/23 02:08:59;;;;;;;8.10;6.05;;;;;;;;;;6280362;22;20024;-86
2022/08/23 02:11:33;;;;;;;13.05;7.38;;;;;;;;;;6215816;23;20020;-87
2022/08/23 02:14:01;;;;;;;11.27;6.80;;;;;;;;;;6191782;23;20024;-86
2022/08/23 02:16:50;;;;;;;10.95;7.13;;;;;;;;;;6190906;23;20021;-88
2022/08/23 02:19:38;;;;;;;12.52;8.05;;;;;;;;;;6202846;23;20017;-86
2022/08/23 02:22:05;;;;;;;10.95;7.70;;;;;;;;;;6215656;23;20449;-88
2022/08/23 02:24:49;;;;;;;15.63;7.93;;;;;;;;;;6216438;23;20016;-87
2022/08/23 02:27:16;;;;;;;15.80;7.22;;;;;;;;;;6191295;23;20017;-88
2022/08/23 02:29:43;;;;;;;12.50;7.80;;;;;;;;;;6190003;23;20020;-87
2022/08/23 02:32:11;;;;;;;10.40;7.05;;;;;;;;;;6167647;23;20031;-87
2022/08/23 02:34:37;;;;;;;10.98;7.20;;;;;;;;;;6216308;23;20055;-86
2022/08/23 02:37:09;;;;;;;13.00;8.20;;;;;;;;;;6193056;23;20457;-86
2022/08/23 02:39:36;;;;;;;11.50;7.72;;;;;;;;;;6215246;23;20537;-90
2022/08/23 02:42:02;;;;;;;16.38;9.52;;;;;;;;;;6214142;22;20028;-88
2022/08/23 02:44:30;;;;;;;14.77;9.48;;;;;;;;;;6202296;22;20035;-89
2022/08/23 02:46:56;;;;;;;12.13;8.73;;;;;;;;;;6229405;22;20020;-87
2022/08/23 02:49:22;;;;;;;15.20;9.23;;;;;;;;;;6280075;22;20026;-88
2022/08/23 02:51:48;;;;;;;16.33;10.50;;;;;;;;;;6226776;22;20020;-87
2022/08/23 02:54:14;;;;;;;19.45;10.70;;;;;;;;;;6228623;22;20020;-88
2022/08/23 02:56:47;;;;;;;22.33;11.00;;;;;;;;;;6227003;22;20030;-90
2022/08/23 02:59:14;;;;;;;18.92;9.30;;;;;;;;;;6280155;22;20072;-87
2022/08/23 03:01:40;;;;;;;14.40;10.07;;;;;;;;;;6230124;22;20027;-87
2022/08/23 03:04:13;;;;;;;13.57;8.93;;;;;;;;;;6252943;22;20018;-88
2022/08/23 03:06:39;;;;;;;11.50;9.02;;;;;;;;;;6252369;22;20016;-87
2022/08/23 03:09:06;;;;;;;15.32;9.25;;;;;;;;;;6253788;22;20022;-88
2022/08/23 03:11:43;;;;;;;15.88;9.15;;;;;;;;;;6252029;22;20054;-87
2022/08/23 03:14:28;;;;;;;18.83;9.13;;;;;;;;;;6252487;22;20460;-86
2022/08/23 03:17:13;;;;;;;17.88;9.18;;;;;;;;;;6278438;22;20042;-86
2022/08/23 03:19:47;;;;;;;17.45;11.02;;;;;;;;;;6280310;22;20054;-88
2022/08/23 03:22:13;;;;;;;13.40;9.00;;;;;;;;;;6225114;22;20477;-86
2022/08/23 03:24:51;;;;;;;17.10;8.90;;;;;;;;;;6280951;22;20145;-86
2022/08/23 03:27:18;;;;;;;15.63;9.20;;;;;;;;;;6228071;22;20132;-85
2022/08/23 03:30:03;;;;;;;14.15;9.60;;;;;;;;;;6282078;22;20018;-87
2022/08/23 03:32:38;;;;;;;12.38;8.82;;;;;;;;;;6253214;22;20056;-87
2022/08/23 03:35:15;;;;;;;;;;;;;;;;;;;;;
2022/08/23 03:37:45;;;;;;;15.32;9.48;;;;;;;;;;6278835;22;20050;-87
2022/08/23 03:40:24;;;;;;;19.45;9.80;;;;;;;;;;6281447;22;20019;-88
2022/08/23 03:42:50;;;;;;;14.52;9.30;;;;;;;;;;6225471;22;20529;-87
2022/08/23 03:45:23;;;;;;;12.38;8.73;;;;;;;;;;6278981;22;20020;-86
2022/08/23 03:47:50;;;;;;;19.73;11.00;;;;;;;;;;6278676;22;20022;-85
2022/08/23 03:50:16;;;;;;;14.45;9.35;;;;;;;;;;6250572;22;20020;-87
2022/08/23 03:53:01;;;;;;;14.05;10.02;;;17.60;99.90;;;;;;6227586;22;20064;-87
2022/08/23 03:55:33;;;;;;;14.20;10.90;;;;;;;;;;6225402;22;20016;-87
2022/08/23 03:58:00;;;;;;;17.65;10.77;;;;;;;;;;6280432;22;20023;-87
2022/08/23 04:00:26;;;;;;;14.95;9.98;;;;;;;;;;6277787;22;20042;-87
2022/08/23 04:02:52;;;;;;;11.52;9.85;;;;;;;;;;6227765;22;20411;-89
2022/08/23 04:05:21;;;;;;;16.77;10.48;;;;;;;;;;6226327;22;20023;-87
2022/08/23 04:07:47;;;;;;;26.55;13.82;;;;;;;;;;6252663;22;20353;-88
2022/08/23 04:10:14;;;;;;;20.90;15.75;;;;;;;;;;6250373;22;20012;-89
2022/08/23 04:12:51;;;;;;;18.80;15.27;;;;;;;;;;6228300;22;20020;-87
2022/08/23 04:15:28;;;;;;;;;;;;;;;;;;;;;
2022/08/23 04:18:13;;;;;;;19.33;15.88;;;;;;;;;;6250974;22;20027;-84
2022/08/23 04:20:39;;;;;;;21.95;16.08;;;;;;;;;;6252146;22;20030;-89
2022/08/23 04:23:05;;;;;;;25.70;14.60;;;;;;;;;;6251822;22;20038;-87
2022/08/23 04:25:37;;;;;;;17.35;13.80;;;;;;;;;;6275541;22;20566;-88
2022/08/23 04:28:04;;;;;;;19.27;12.90;;;;;;;;;;6250245;22;20024;-87
2022/08/23 04:30:31;;;;;;;18.88;12.95;;;;;;;;;;6281600;22;20483;-89
2022/08/23 04:33:00;;;;;;;20.45;14.52;;;;;;;;;;6251347;22;20026;-88
2022/08/23 04:35:26;;;;;;;20.92;12.93;;;;;;;;;;6253978;22;20108;-87
2022/08/23 04:37:52;;;;;;;19.65;13.70;;;;;;;;;;6252259;22;20345;-87
2022/08/23 04:43:29;;;;;;;16.95;12.65;;;;;;;;;;6255401;22;20558;-89
2022/08/23 04:45:56;;;;;;;20.17;11.82;;;;;;;;;;6225621;22;20016;-87
2022/08/23 04:48:23;;;;;;;19.45;13.23;;;;;;;;;;6252396;22;20026;-89
2022/08/23 04:50:58;;;;;;;18.17;13.50;;;;;;;;;;6277807;22;20031;-87
2022/08/23 04:53:24;;;;;;;17.88;14.00;;;;;;;;;;6278699;22;20047;-87
2022/08/23 04:56:01;;;;;;;15.48;12.10;;;;;;;;;;6278782;22;20023;-86
2022/08/23 04:58:27;;;;;;;17.52;12.27;;;;;;;;;;6229126;22;20031;-87
2022/08/23 05:00:54;;;;;;;16.83;14.15;;;;;;;;;;6277736;22;20034;-87
2022/08/23 05:03:27;;;;;;;21.63;12.68;;;;;;;;;;6280786;22;20390;-87
2022/08/23 05:05:54;;;;;;;18.42;13.50;;;;;;;;;;6225342;22;20026;-88
2022/08/23 05:08:20;;;;;;;16.10;12.65;;;;;;;;;;6228420;22;20666;-87
2022/08/23 05:10:52;;;;;;;19.48;13.02;;;;;;;;;;6278448;22;20026;-89
2022/08/23 05:13:18;;;;;;;20.00;13.10;;;;;;;;;;6281114;22;20026;-88
2022/08/23 05:15:44;;;;;;;21.02;12.75;;;;;;;;;;6278666;22;20069;-87
2022/08/23 05:18:17;;;;;;;16.35;12.50;;;;;;;;;;6252748;22;20016;-88
2022/08/23 05:20:43;;;;;;;15.52;13.35;;;;;;;;;;6226613;22;20034;-85
2022/08/23 05:23:09;;;;;;;19.65;13.85;;;;;;;;;;6282546;22;20134;-88
2022/08/23 05:25:51;;;;;;;34.58;21.30;;;;;;;;;;6279810;22;20537;-88
2022/08/23 05:28:24;;;;;;;27.38;21.08;;;;;;;;;;6254714;22;20030;-88
2022/08/23 05:31:10;;;;;;;24.13;21.00;;;;;;;;;;6281027;22;20079;-88
2022/08/23 05:33:37;;;;;;;25.63;21.27;;;;;;;;;;6255389;22;20026;-88
2022/08/23 05:36:10;;;;;;;31.02;23.58;;;;;;;;;;6228977;22;20043;-89
2022/08/23 05:38:37;;;;;;;43.63;26.90;;;;;;;;;;6254188;22;20124;-88
2022/08/23 05:41:04;;;;;;;30.00;23.00;;;;;;;;;;6252553;22;20053;-86
2022/08/23 05:43:35;;;;;;;26.38;19.58;;;;;;;;;;6253409;22;20054;-88
2022/08/23 05:46:03;;;;;;;24.33;15.63;;;;;;;;;;6228694;22;20028;-85
2022/08/23 05:48:51;;;;;;;21.75;15.70;;;;;;;;;;6281380;22;20094;-87
2022/08/23 05:51:33;;;;;;;27.88;15.48;;;;;;;;;;6252983;22;20027;-85
2022/08/23 05:54:05;;;;;;;17.50;14.45;;;;;;;;;;6249577;22;20539;-88
2022/08/23 05:56:49;;;;;;;17.77;15.13;;;;;;;;;;6280646;22;20019;-88
2022/08/23 05:59:15;;;;;;;;;;;;;;;;;;6278080;22;20019;-87
2022/08/23 06:02:01;;;;;;;20.25;14.82;;;;;;;;;;6254000;22;20328;-88
2022/08/23 06:04:33;;;;;;;20.58;15.20;;;;;;;;;;6278455;22;20072;-87
2022/08/23 06:06:59;;;;;;;18.67;14.98;;;;;;;;;;6278848;22;20057;-87
2022/08/23 06:09:25;;;;;;;21.83;14.85;;;;;;;;;;6225639;22;20023;-89
2022/08/23 06:11:51;;;;;;;17.05;14.43;;;;;;;;;;6226047;22;20047;-88
2022/08/23 06:14:20;;;;;;;18.65;13.98;;;;;;;;;;6278795;22;20023;-88
2022/08/23 06:16:49;;;;;;;15.77;12.98;;;;;;;;;;6251886;22;20042;-89
2022/08/23 06:19:15;;;;;;;17.92;13.32;;;;;;;;;;6240214;23;20020;-89
2022/08/23 06:21:48;;;;;;;20.85;13.00;;;;;;;;;;6194063;23;20321;-89
2022/08/23 06:24:20;;;;;;;17.83;12.40;;;;;;;;;;6221701;23;20024;-87
2022/08/23 06:26:46;;;;;;;15.55;12.98;;;;;;;;;;6219125;23;20017;-87
2022/08/23 06:29:14;;;;;;;21.00;13.20;;;;;;;;;;6196806;23;20027;-86
2022/08/23 06:38:07;;;;;;;18.23;12.70;;;;;;;;;;6229539;22;20078;-86
2022/08/23 06:41:27;;;;;;;18.55;11.60;;;19.30;99.90;;;;;;6195520;23;20468;-85
2022/08/23 06:43:53;;;;;;;16.40;11.93;;;;;;;;;;6241457;23;20126;-88
2022/08/23 06:46:21;;;;;;;17.02;12.02;;;;;;;;;;6195563;23;20020;-87
2022/08/23 06:48:48;;;;;;;16.70;12.48;;;;;;;;;;6221873;23;20437;-86
2022/08/23 06:51:34;;;;;;;17.17;12.65;;;;;;;;;;6245091;23;20065;-89
2022/08/23 06:54:22;;;;;;;17.58;13.57;;;;;;;;;;6195571;23;20020;-87
2022/08/23 06:56:48;;;;;;;18.75;12.73;;;;;;;;;;6194931;23;20016;-88
2022/08/23 06:59:15;;;;;;;20.02;11.93;;;;;;;;;;6223738;23;20024;-85
2022/08/23 07:04:52;;;;;;;12.68;11.27;;;;;;;;;;6248694;22;20092;-87
2022/08/23 07:10:25;;;;;;;19.02;10.38;;;;;;;;;;6141860;23;20021;-87
2022/08/23 07:15:31;;;;;;;14.65;9.90;;;;;;;;;;6230195;23;20055;-87
2022/08/23 07:17:57;;;;;;;14.85;9.15;;;;;;;;;;6198022;23;20060;-87
2022/08/23 07:20:23;;;;;;;15.10;8.75;;;;;;;;;;6198265;23;20027;-87
2022/08/23 07:22:49;;;;;;;10.15;9.00;;;;;;;;;;6223197;23;20020;-89
2022/08/23 07:25:18;;;;;;;20.77;9.15;;;;;;;;;;6201693;23;20020;-86
2022/08/23 07:33:34;;;;;;;17.35;9.45;;;;;;;;;;6254737;22;20514;-87
2022/08/23 07:48:16;;;;;;;12.88;7.10;;;;;;;;;;6220831;23;20404;-88
2022/08/23 07:54:27;;;;;;;11.38;6.18;;;;;;;;;;6246736;22;20143;-88
2022/08/23 07:59:44;;;;;;;11.70;5.72;;;;;;;;;;6249573;22;20039;-86
2022/08/23 08:11:44;;;;;;;9.77;5.50;;;;;;;;;;6218700;23;20103;-87
2022/08/23 08:14:10;;;;;;;12.07;5.40;;;;;;;;;;6168619;23;20016;-86
2022/08/23 08:16:41;;;;;;;13.38;5.65;;;;;;;;;;6192470;23;20048;-87
2022/08/23 08:28:26;;;;;;;9.90;6.30;;;;;;;;;;6246755;23;20091;-87
2022/08/23 08:31:04;;;;;;;12.45;6.93;;;;;;;;;;6218737;23;20024;-89
2022/08/23 08:33:46;;;;;;;15.07;6.43;;;;;;;;;;6195227;23;20086;-87
2022/08/23 08:38:48;;;;;;;11.82;6.05;;;;;;;;;;6240881;22;20032;-87
2022/08/23 08:41:48;;;;;;;8.38;4.97;;;;;;;;;;6218584;23;20020;-88
2022/08/23 08:47:12;;;;;;;7.93;5.07;;;;;;;;;;6167346;23;20024;-87
2022/08/23 08:53:02;;;;;;;10.15;5.20;;;;;;;;;;6244330;23;20047;-86
2022/08/23 08:55:31;;;;;;;9.98;4.55;;;;;;;;;;6246200;23;20024;-86
2022/08/23 08:57:58;;;;;;;8.27;4.38;;;;;;;;;;6218472;23;20024;-86
2022/08/23 09:00:42;;;;;;;18.48;4.70;;;;;;;;;;6197008;23;20035;-86
2022/08/23 09:06:30;;;;;;;10.32;4.70;;;;;;;;;;6222496;23;20024;-86
2022/08/23 09:08:59;;;;;;;12.30;5.05;;;;;;;;;;6180133;23;20201;-86
2022/08/23 09:15:13;;;;;;;7.63;5.20;;;;;;;;;;6252755;22;20035;-85
2022/08/23 09:18:05;;;;;;;10.15;5.20;;;;;;;;;;6197428;23;20032;-87
2022/08/23 09:20:32;;;;;;;11.05;5.13;;;;;;;;;;6197752;23;20047;-87
2022/08/23 09:23:12;;;;;;;14.40;5.82;;;;;;;;;;6195033;23;20345;-86
2022/08/23 09:26:00;;;;;;;15.27;6.15;;;;;;;;;;6249073;23;20031;-89
2022/08/23 09:28:32;;;;;;;14.45;6.20;;;;;;;;;;6250062;22;20107;-91
2022/08/23 09:31:04;;;;;;;16.05;6.20;;;;;;;;;;6196957;23;20050;-89
2022/08/23 09:33:41;;;;;;;8.93;6.10;;;;;;;;;;6197433;23;20390;-88
2022/08/23 09:46:12;;;;;;;11.05;6.90;;;;;;;;;;6213838;22;20036;-89
2022/08/23 11:27:16;;;;;;;7.80;3.70;;;;;;;;;;6218422;23;20074;-92
2022/08/23 11:29:43;;;;;;;14.32;4.07;;;;;;;;;;6165882;23;20020;-91
2022/08/23 11:35:16;;;;;;;;;;;;;;;;;;6192061;23;20517;-92
2022/08/23 11:38:01;;;;;;;4.90;3.35;;;;;;;;;;6166416;23;20381;-92
2022/08/23 11:44:06;;;;;;;6.95;3.40;;;;;;;;;;6194487;23;20056;-92
2022/08/23 11:53:55;;;;;;;5.55;3.13;;;;;;;;;;6185116;23;20063;-92
2022/08/23 13:03:02;;;;;;;4.90;2.00;;;;;;;;;;6252471;23;20019;-92
2022/08/23 13:12:26;;;;;;;6.65;2.70;;;;;;;;;;6226578;23;20028;-92
2022/08/23 13:19:22;;;;;;;8.23;2.42;;;;;;;;;;6099279;23;20038;-92
2022/08/23 15:25:55;;;;;;;7.72;2.95;;;;;;;;;;6229072;22;20591;-89
2022/08/23 15:28:49;;;;;;;5.38;2.30;;;;;;;;;;6189220;22;20411;-88
2022/08/23 17:01:16;;;;;;;;;;;;;;;;;;;;;
2022/08/23 18:36:42;;;;;;;18.42;6.90;;;;;;;;;;6259242;23;20050;-90
2022/08/23 18:39:09;;;;;;;13.45;5.20;;;;;;;;;;6213453;23;20058;-90
2022/08/23 18:44:56;;;;;;;9.00;5.00;;;;;;;;;;6142917;23;20022;-88
2022/08/23 19:15:21;;;;;;;11.25;8.93;;;;;;;;;;6250748;22;20096;-88
2022/08/23 19:18:03;;;;;;;15.27;9.75;;;;;;;;;;6224086;23;20035;-88
2022/08/23 19:23:49;;;;;;;21.98;9.57;;;;;;;;;;6246731;23;20031;-88
2022/08/23 19:29:19;;;;;;;14.20;9.13;;;;;;;;;;6225731;23;20024;-88
2022/08/23 19:31:57;;;;;;;19.75;9.88;;;;;;;;;;6175946;23;20024;-87
2022/08/23 19:34:30;;;;;;;19.80;10.02;;;;;;;;;;6250159;23;20387;-88
2022/08/23 19:36:56;;;;;;;17.77;9.25;;;;;;;;;;6199848;23;20090;-88
2022/08/23 19:39:53;;;;;;;11.73;9.20;;;;;;;;;;6217759;23;20028;-87
2022/08/23 19:42:20;;;;;;;15.15;10.07;;;;;;;;;;6200491;23;20020;-88
2022/08/23 19:44:46;;;;;;;16.00;8.90;;;;;;;;;;6200325;23;20020;-88
2022/08/23 19:53:25;;;;;;;20.75;11.95;;;;;;;;;;6255585;22;20075;-88
2022/08/23 19:56:26;;;;;;;26.63;12.70;;;;;;;;;;6230280;22;20102;-88
2022/08/23 19:59:31;;;;;;;23.20;12.32;;;;;;;;;;6284250;22;20077;-89
2022/08/23 20:25:23;;;;;;;21.92;17.45;;;;;;;;;;6251028;23;20035;-88
2022/08/23 20:40:41;;;;;;;29.27;26.27;;;;;;;;;;6222674;23;20031;-89
2022/08/23 20:46:25;;;;;;;27.08;24.45;;;;;;;;;;6158017;23;20055;-90
2022/08/23 20:54:17;;;;;;;28.17;25.35;;;;;;;;;;6197323;23;20055;-90
2022/08/23 20:59:59;;;;;;;28.40;25.42;;;;;;;;;;6238218;23;20028;-90
2022/08/23 21:02:46;;;;;;;31.20;27.85;;;;;;;;;;6195206;23;20047;-89
2022/08/23 21:08:38;;;;;;;36.03;32.25;;;;;;;;;;6246145;22;20074;-88
2022/08/23 21:11:05;;;;;;;40.88;35.80;;;;;;;;;;6199733;23;20047;-90
2022/08/23 21:16:50;;;;;;;39.22;35.40;;;;;;;;;;6254190;23;20088;-88
2022/08/23 21:19:32;;;;;;;43.08;39.10;;;;;;;;;;6201693;23;20020;-88
2022/08/23 21:22:14;;;;;;;45.60;40.83;;;;;;;;;;6200619;23;20058;-90
2022/08/23 21:24:46;;;;;;;42.40;37.78;;;;;;;;;;6253611;23;20078;-89
2022/08/23 21:27:18;;;;;;;40.70;36.60;;;;;;;;;;6177346;23;20019;-89
2022/08/23 21:30:01;;;;;;;39.35;35.83;;;;;;;;;;6202336;23;20396;-90
2022/08/23 21:33:32;;;;;;;37.57;34.00;;;22.30;99.90;;;;;;6185442;23;20020;-87
2022/08/23 21:36:24;;;;;;;38.20;34.65;;;;;;;;;;6207640;23;20038;-90
2022/08/23 21:39:26;;;;;;;37.08;33.58;;;;;;;;;;6235092;23;20024;-90
2022/08/23 21:42:18;;;;;;;40.53;36.15;;;;;;;;;;6211396;23;20016;-91
2022/08/23 21:44:45;;;;;;;37.90;34.35;;;;;;;;;;6202011;23;20031;-93
2022/08/23 21:47:25;;;;;;;38.42;34.72;;;;;;;;;;6199793;23;20043;-92
2022/08/23 21:49:55;;;;;;;42.17;36.53;;;;;;;;;;6222625;23;20050;-93
2022/08/23 21:52:36;;;;;;;39.65;35.70;;;;;;;;;;6225168;23;20023;-93
2022/08/23 21:55:09;;;;;;;40.95;36.78;;;;;;;;;;6197491;23;20020;-92
2022/08/23 21:57:52;;;;;;;;;;;;;;;;;;;;;
2022/08/23 22:00:52;;;;;;;39.97;36.15;;;;;;;;;;6245367;23;20014;-89
2022/08/23 22:03:24;;;;;;;38.88;35.08;;;;;;;;;;6200000;23;20024;-90
2022/08/23 22:05:58;;;;;;;37.58;34.03;;;;;;;;;;6170747;23;20050;-90
2022/08/23 22:08:44;;;;;;;37.70;33.75;;;;;;;;;;6221535;23;20020;-91
2022/08/23 22:11:40;;;;;;;39.95;35.92;;;;;;;;;;6166750;23;20028;-89
2022/08/23 22:14:23;;;;;;;39.28;35.45;;;;;;;;;;6141887;23;20334;-90
2022/08/23 22:20:37;;;;;;;43.13;38.42;;;;;;;;;;6194018;23;20012;-90
2022/08/23 22:23:10;;;;;;;47.53;42.60;;;;;;;;;;6141494;23;20035;-89
2022/08/23 22:53:00;;;;;;;62.60;56.47;;;;;;;;;;6249341;23;20032;-91
2022/08/23 22:55:55;;;;;;;65.00;58.33;;;;;;;;;;6200951;23;20449;-91
2022/08/23 23:08:44;;;;;;;63.28;56.75;;;;;;;;;;6227493;23;20028;-90
2022/08/23 23:41:48;;;;;;;59.72;53.92;;;;;;;;;;6276434;22;20034;-90
2022/08/23 23:48:11;;;;;;;54.13;48.63;;;;;;;;;;6284163;22;20023;-91
2022/08/23 23:50:48;;;;;;;;;;;;;;;;;;6226929;22;20083;-90
2022/08/23 23:57:10;;;;;;;48.42;43.53;;;;;;;;;;6280871;22;20041;-91
2022/08/23 23:59:37;;;;;;;50.30;45.53;;;;;;;;;;6229099;22;20027;-91
